createdAt,value
2019-01-05T00:01:24.117Z,3.35
2019-01-05T00:04:25.341Z,2.85
2019-01-05T00:07:14.559Z,3.00
2019-01-05T00:10:07.006Z,3.20
2019-01-05T00:13:05.198Z,2.98
2019-01-05T00:16:10.008Z,2.80
2019-01-05T00:18:56.042Z,2.50
2019-01-05T00:21:52.440Z,3.00
2019-01-05T00:24:44.911Z,3.00
2019-01-05T00:27:47.537Z,3.00
2019-01-05T00:30:35.514Z,3.08
2019-01-05T00:33:31.011Z,2.70
2019-01-05T00:36:27.368Z,3.30
2019-01-05T00:39:19.704Z,2.90
2019-01-05T00:42:12.101Z,2.50
2019-01-05T00:44:59.970Z,1.98
2019-01-05T00:47:49.786Z,2.75
2019-01-05T00:50:55.521Z,2.75
2019-01-05T00:53:50.934Z,2.60
2019-01-05T00:56:43.906Z,2.62
2019-01-05T00:59:43.210Z,2.60
2019-01-05T01:02:35.487Z,2.20
2019-01-05T01:05:36.912Z,2.33
2019-01-05T01:08:29.454Z,2.98
2019-01-05T01:11:19.232Z,2.70
2019-01-05T01:14:11.199Z,2.50
2019-01-05T01:17:15.706Z,2.00
2019-01-05T01:20:11.081Z,3.75
2019-01-05T01:23:01.335Z,2.60
2019-01-05T01:25:55.660Z,3.87
2019-01-05T01:28:43.835Z,3.20
2019-01-05T01:31:31.429Z,3.98
2019-01-05T01:34:27.700Z,2.67
2019-01-05T01:37:13.760Z,2.35
2019-01-05T01:40:03.904Z,2.42
2019-01-05T01:42:51.663Z,2.55
2019-01-05T01:45:42.691Z,2.55
2019-01-05T01:48:32.996Z,2.45
2019-01-05T01:51:21.766Z,3.60
2019-01-05T01:54:20.826Z,3.58
2019-01-05T01:57:03.782Z,3.80
2019-01-05T02:00:22.960Z,2.87
2019-01-05T02:03:17.794Z,4.03
2019-01-05T02:06:05.589Z,3.58
2019-01-05T02:09:04.960Z,3.12
2019-01-05T02:11:55.577Z,3.52
2019-01-05T02:14:48.947Z,3.65
2019-01-05T02:18:34.002Z,4.08
2019-01-05T02:21:58.787Z,5.72
2019-01-05T02:25:26.971Z,3.80
2019-01-05T02:29:20.673Z,3.92
2019-01-05T02:32:41.425Z,5.08
2019-01-05T02:36:26.611Z,4.22
2019-01-05T02:39:55.437Z,4.90
2019-01-05T02:43:15.011Z,5.00
2019-01-05T02:47:10.130Z,3.87
2019-01-05T02:51:03.190Z,4.28
2019-01-05T02:54:51.378Z,4.00
2019-01-05T02:58:36.778Z,4.20
2019-01-05T03:02:24.916Z,3.77
2019-01-05T03:05:58.565Z,4.28
2019-01-05T03:09:17.715Z,3.17
2019-01-05T03:12:45.588Z,5.72
2019-01-05T03:16:10.086Z,4.10
2019-01-05T03:19:39.879Z,3.00
2019-01-05T03:23:16.738Z,2.50
2019-01-05T03:26:46.620Z,3.52
2019-01-05T03:30:07.257Z,3.05
2019-01-05T03:33:21.518Z,3.00
2019-01-05T03:36:51.657Z,2.65
2019-01-05T03:40:26.543Z,2.15
2019-01-05T03:43:49.425Z,3.02
2019-01-05T03:47:25.191Z,3.27
2019-01-05T03:50:58.253Z,2.30
2019-01-05T03:54:41.359Z,2.67
2019-01-05T03:58:19.558Z,2.45
2019-01-05T04:01:39.306Z,1.90
2019-01-05T04:05:20.378Z,2.52
2019-01-05T04:08:54.140Z,2.80
2019-01-05T04:12:57.626Z,3.20
2019-01-05T04:16:32.713Z,2.33
2019-01-05T04:20:08.956Z,2.72
2019-01-05T04:23:16.718Z,2.62
2019-01-05T04:27:02.356Z,1.90
2019-01-05T04:30:33.092Z,3.20
2019-01-05T04:33:38.166Z,3.80
2019-01-05T04:37:28.155Z,3.22
2019-01-05T04:40:58.819Z,3.30
2019-01-05T04:44:22.080Z,2.75
2019-01-05T04:47:56.868Z,4.28
2019-01-05T04:51:16.860Z,2.83
2019-01-05T04:54:36.221Z,2.50
2019-01-05T04:57:55.106Z,3.77
2019-01-05T05:01:37.657Z,3.02
2019-01-05T05:05:10.230Z,3.00
2019-01-05T05:09:01.929Z,3.10
2019-01-05T05:12:35.112Z,2.80
2019-01-05T05:16:06.097Z,3.00
2019-01-05T05:19:18.921Z,2.50
2019-01-05T05:22:44.323Z,3.92
2019-01-05T05:26:10.925Z,2.60
2019-01-05T05:29:47.677Z,2.60
2019-01-05T05:33:00.427Z,2.77
2019-01-05T05:36:48.003Z,3.20
2019-01-05T05:40:32.236Z,2.70
2019-01-05T05:43:53.118Z,3.20
2019-01-05T05:47:16.384Z,3.20
2019-01-05T05:50:58.881Z,3.55
2019-01-05T05:54:53.191Z,3.27
2019-01-05T05:58:16.575Z,3.40
2019-01-05T06:01:59.674Z,2.70
2019-01-05T06:05:37.289Z,3.98
2019-01-05T06:09:07.573Z,3.50
2019-01-05T06:12:15.244Z,3.77
2019-01-05T06:15:38.471Z,4.50
2019-01-05T06:19:07.058Z,3.80
2019-01-05T06:22:51.417Z,3.52
2019-01-05T06:26:39.273Z,3.00
2019-01-05T06:30:25.428Z,4.20
2019-01-05T06:33:57.239Z,5.17
2019-01-05T06:37:21.192Z,3.92
2019-01-05T06:40:52.070Z,4.08
2019-01-05T06:44:23.627Z,2.37
2019-01-05T06:48:05.994Z,3.95
2019-01-05T06:51:31.379Z,3.40
2019-01-05T06:55:27.411Z,2.58
2019-01-05T06:59:31.162Z,3.50
2019-01-05T07:02:57.917Z,4.17
2019-01-05T07:06:37.720Z,4.42
2019-01-05T07:10:08.920Z,3.15
2019-01-05T07:13:43.533Z,3.47
2019-01-05T07:17:30.149Z,5.28
2019-01-05T07:21:06.756Z,4.00
2019-01-05T07:24:39.283Z,5.47
2019-01-05T07:28:01.679Z,4.92
2019-01-05T07:31:54.158Z,5.03
2019-01-05T07:35:36.062Z,3.87
2019-01-05T07:39:03.649Z,5.65
2019-01-05T07:42:29.458Z,2.75
2019-01-05T07:45:42.410Z,3.72
2019-01-05T07:49:27.469Z,2.83
2019-01-05T07:52:44.212Z,3.77
2019-01-05T07:56:39.331Z,3.30
2019-01-05T08:00:12.139Z,4.30
2019-01-05T08:03:57.710Z,2.87
2019-01-05T08:07:33.902Z,3.27
2019-01-05T08:11:06.334Z,4.45
2019-01-05T08:14:58.334Z,3.30
2019-01-05T08:18:32.287Z,3.65
2019-01-05T08:22:19.657Z,4.45
2019-01-05T08:26:00.578Z,4.00
2019-01-05T08:29:25.147Z,4.70
2019-01-05T08:32:49.494Z,4.17
2019-01-05T08:36:31.565Z,4.20
2019-01-05T08:39:58.794Z,3.92
2019-01-05T08:43:45.874Z,4.00
2019-01-05T08:47:19.800Z,3.83
2019-01-05T08:50:39.812Z,3.85
2019-01-05T08:54:21.782Z,2.87
2019-01-05T08:57:53.404Z,4.90
2019-01-05T09:01:15.545Z,3.20
2019-01-05T09:04:52.638Z,2.92
2019-01-05T09:08:33.389Z,2.42
2019-01-05T09:11:44.755Z,4.00
2019-01-05T09:15:28.928Z,3.40
2019-01-05T09:19:07.224Z,2.55
2019-01-05T09:22:47.923Z,3.87
2019-01-05T09:26:34.234Z,3.55
2019-01-05T09:30:17.336Z,4.17
2019-01-05T09:33:48.002Z,3.70
2019-01-05T09:37:12.540Z,3.70
2019-01-05T09:40:46.283Z,4.17
2019-01-05T09:44:43.635Z,3.25
2019-01-05T09:48:21.315Z,5.10
2019-01-05T09:52:13.860Z,3.53
2019-01-05T09:55:45.425Z,3.10
2019-01-05T09:59:12.896Z,2.98
2019-01-05T10:02:44.999Z,4.07
2019-01-05T10:06:31.609Z,3.83
2019-01-05T10:09:58.232Z,6.57
2019-01-05T10:13:26.692Z,3.27
2019-01-05T10:17:17.108Z,4.47
2019-01-05T10:20:45.697Z,2.90
2019-01-05T10:24:06.425Z,3.97
2019-01-05T10:27:19.573Z,3.57
2019-01-05T10:31:00.881Z,4.20
2019-01-05T10:34:34.272Z,3.58
2019-01-05T10:38:13.266Z,4.43
2019-01-05T10:41:41.707Z,3.35
2019-01-05T10:45:37.648Z,3.52
2019-01-05T10:49:24.945Z,2.83
2019-01-05T10:52:52.117Z,3.83
2019-01-05T10:56:16.158Z,3.57
2019-01-05T10:59:55.171Z,4.27
2019-01-05T11:03:31.542Z,2.80
2019-01-05T11:06:49.335Z,3.20
2019-01-05T11:10:36.477Z,3.40
2019-01-05T11:14:22.532Z,3.27
2019-01-05T11:18:04.334Z,4.37
2019-01-05T11:21:44.180Z,3.00
2019-01-05T11:24:58.546Z,3.30
2019-01-05T11:28:29.067Z,3.00
2019-01-05T11:31:47.261Z,3.97
2019-01-05T11:35:21.517Z,2.90
2019-01-05T11:38:50.323Z,3.77
2019-01-05T11:42:34.569Z,3.10
2019-01-05T11:46:16.879Z,3.35
2019-01-05T11:49:59.135Z,3.37
2019-01-05T11:53:36.880Z,2.60
2019-01-05T11:57:11.219Z,2.73
2019-01-05T12:00:31.463Z,3.07
2019-01-05T12:03:58.980Z,3.77
2019-01-05T12:07:28.686Z,2.90
2019-01-05T12:11:48.016Z,3.27
2019-01-05T12:15:23.474Z,2.63
2019-01-05T12:18:58.842Z,2.83
2019-01-05T12:22:24.110Z,3.13
2019-01-05T12:25:47.239Z,2.70
2019-01-05T12:29:15.757Z,3.00
2019-01-05T12:32:56.790Z,2.60
2019-01-05T12:36:23.152Z,4.23
2019-01-05T12:40:19.742Z,2.67
2019-01-05T12:43:54.496Z,2.70
2019-01-05T12:47:26.270Z,2.73
2019-01-05T12:51:07.958Z,2.27
2019-01-05T12:55:05.177Z,4.90
2019-01-05T12:58:38.000Z,4.50
2019-01-05T13:02:12.872Z,3.03
2019-01-05T13:05:59.772Z,2.80
2019-01-05T13:09:34.998Z,1.80
2019-01-05T13:13:30.867Z,3.10
2019-01-05T13:17:02.080Z,2.43
2019-01-05T13:20:31.574Z,3.70
2019-01-05T13:24:03.496Z,2.97
2019-01-05T13:27:41.757Z,2.90
2019-01-05T13:30:58.612Z,1.97
2019-01-05T13:34:28.536Z,2.87
2019-01-05T13:38:19.522Z,3.60
2019-01-05T13:42:05.784Z,3.05
2019-01-05T13:45:44.817Z,2.13
2019-01-05T13:49:31.700Z,3.77
2019-01-05T13:52:50.272Z,2.67
2019-01-05T13:56:02.368Z,3.27
2019-01-05T13:58:51.326Z,2.08
2019-01-05T14:01:43.387Z,3.85
2019-01-05T14:04:39.367Z,2.85
2019-01-05T14:07:27.161Z,3.90
2019-01-05T14:10:28.463Z,3.10
2019-01-05T14:13:13.552Z,3.17
2019-01-05T14:16:04.401Z,2.98
2019-01-05T14:18:53.870Z,2.45
2019-01-05T14:21:45.191Z,3.42
2019-01-05T14:24:49.664Z,3.70
2019-01-05T14:27:44.995Z,1.98
2019-01-05T14:30:36.566Z,3.67
2019-01-05T14:33:27.889Z,3.35
2019-01-05T14:36:15.818Z,3.42
2019-01-05T14:39:04.047Z,2.08
2019-01-05T14:41:53.534Z,3.72
2019-01-05T14:44:56.530Z,3.20
2019-01-05T14:48:01.119Z,5.95
2019-01-05T14:50:53.119Z,6.03
2019-01-05T14:53:43.329Z,5.75
2019-01-05T14:56:47.864Z,3.62
2019-01-05T14:59:33.424Z,3.15
2019-01-05T15:02:21.198Z,3.12
2019-01-05T15:05:22.524Z,4.12
2019-01-05T15:08:13.993Z,2.80
2019-01-05T15:11:14.268Z,2.70
2019-01-05T15:14:02.725Z,2.10
2019-01-05T15:16:51.970Z,4.85
2019-01-05T15:19:33.329Z,2.70
2019-01-05T15:22:32.655Z,2.42
2019-01-05T15:25:21.097Z,2.92
2019-01-05T15:28:19.848Z,2.27
2019-01-05T15:31:07.740Z,2.80
2019-01-05T15:34:03.158Z,3.00
2019-01-05T15:36:52.429Z,3.75
2019-01-05T15:39:53.988Z,2.85
2019-01-05T15:42:52.683Z,4.28
2019-01-05T15:45:40.340Z,3.77
2019-01-05T15:48:47.726Z,3.25
2019-01-05T15:51:35.728Z,4.35
2019-01-05T15:54:31.651Z,3.17
2019-01-05T15:57:22.719Z,2.87
2019-01-05T16:00:12.437Z,2.62
2019-01-05T16:02:59.968Z,3.17
2019-01-05T16:05:51.374Z,3.25
2019-01-05T16:08:47.767Z,3.37
2019-01-05T16:11:45.821Z,3.35
2019-01-05T16:14:33.782Z,4.80
2019-01-05T16:17:38.470Z,4.17
2019-01-05T16:20:21.849Z,3.00
2019-01-05T16:23:10.951Z,3.98
2019-01-05T16:25:58.504Z,3.60
2019-01-05T16:28:46.423Z,5.40
2019-01-05T16:31:35.650Z,3.10
2019-01-05T16:34:40.951Z,3.47
2019-01-05T16:37:30.171Z,3.10
2019-01-05T16:40:25.324Z,3.75
2019-01-05T16:43:21.743Z,3.30
2019-01-05T16:46:26.105Z,4.25
2019-01-05T16:49:13.913Z,4.35
2019-01-05T16:52:12.325Z,3.47
2019-01-05T16:55:05.509Z,4.70
2019-01-05T16:57:53.374Z,2.65
2019-01-05T17:00:45.427Z,3.65
2019-01-05T17:03:39.721Z,3.40
2019-01-05T17:06:28.202Z,3.47
2019-01-05T17:09:26.706Z,4.22
2019-01-05T17:12:14.475Z,2.85
2019-01-05T17:14:58.258Z,2.15
2019-01-05T17:17:50.871Z,3.10
2019-01-05T17:20:55.303Z,2.75
2019-01-05T17:23:42.335Z,2.50
2019-01-05T17:26:40.405Z,2.35
2019-01-05T17:29:33.027Z,2.75
2019-01-05T17:32:22.340Z,36.80
2019-01-05T17:35:11.386Z,3.00
2019-01-05T17:38:01.180Z,3.00
2019-01-05T17:40:49.207Z,2.25
2019-01-05T17:43:56.644Z,2.92
2019-01-05T17:47:04.019Z,2.20
2019-01-05T17:49:52.307Z,2.58
2019-01-05T17:52:40.305Z,3.17
2019-01-05T17:55:49.670Z,3.25
2019-01-05T17:58:56.916Z,3.00
2019-01-05T18:01:47.983Z,3.08
2019-01-05T18:04:55.021Z,2.20
2019-01-05T18:07:44.054Z,1.90
2019-01-05T18:10:36.308Z,1.70
2019-01-05T18:13:33.447Z,4.10
2019-01-05T18:16:21.230Z,2.08
2019-01-05T18:19:16.546Z,2.12
2019-01-05T18:22:13.008Z,1.77
2019-01-05T18:25:00.909Z,2.55
2019-01-05T18:27:48.792Z,1.67
2019-01-05T18:30:38.233Z,2.33
2019-01-05T18:33:27.612Z,2.90
2019-01-05T18:36:16.950Z,1.45
2019-01-05T18:39:04.868Z,1.77
2019-01-05T18:41:53.572Z,2.60
2019-01-05T18:44:41.582Z,2.05
2019-01-05T18:47:29.213Z,2.15
2019-01-05T18:50:17.161Z,1.65
2019-01-05T18:53:05.798Z,2.75
2019-01-05T18:55:58.230Z,2.65
2019-01-05T18:59:00.464Z,2.10
2019-01-05T19:01:48.823Z,2.50
2019-01-05T19:04:56.248Z,5.55
2019-01-05T19:08:03.479Z,6.62
2019-01-05T19:11:05.042Z,5.80
2019-01-05T19:14:00.168Z,4.60
2019-01-05T19:17:01.443Z,3.85
2019-01-05T19:19:49.682Z,3.35
2019-01-05T19:22:39.040Z,2.37
2019-01-05T19:25:31.146Z,2.58
2019-01-05T19:28:15.035Z,3.35
2019-01-05T19:31:09.148Z,2.45
2019-01-05T19:33:57.022Z,3.37
2019-01-05T19:36:46.069Z,3.50
2019-01-05T19:39:34.048Z,5.83
2019-01-05T19:42:26.083Z,5.95
2019-01-05T19:45:34.603Z,5.17
2019-01-05T19:48:22.696Z,5.95
2019-01-05T19:51:21.342Z,5.58
2019-01-05T19:54:13.552Z,4.45
2019-01-05T19:57:13.110Z,5.35
2019-01-05T20:00:02.630Z,6.20
2019-01-05T20:02:50.739Z,5.35
2019-01-05T20:05:40.473Z,3.70
2019-01-05T20:08:41.577Z,5.60
2019-01-05T20:11:30.028Z,4.08
2019-01-05T20:14:31.217Z,4.53
2019-01-05T20:17:29.333Z,3.92
2019-01-05T20:20:21.363Z,3.80
2019-01-05T20:23:09.678Z,4.58
2019-01-05T20:25:59.260Z,4.30
2019-01-05T20:28:48.621Z,6.55
2019-01-05T20:31:38.031Z,3.65
2019-01-05T20:34:36.666Z,3.58
2019-01-05T20:37:28.927Z,3.47
2019-01-05T20:40:36.227Z,9.95
2019-01-05T20:43:24.589Z,12.23
2019-01-05T20:46:21.200Z,10.43
2019-01-05T20:49:13.671Z,8.93
2019-01-05T20:52:01.657Z,6.28
2019-01-05T20:55:00.702Z,5.70
2019-01-05T20:58:02.487Z,4.30
2019-01-05T21:01:09.808Z,4.58
2019-01-05T21:03:53.053Z,4.45
2019-01-05T21:06:37.390Z,4.97
2019-01-05T21:09:32.951Z,4.92
2019-01-05T21:12:20.640Z,5.05
2019-01-05T21:15:17.076Z,9.20
2019-01-05T21:18:13.351Z,7.45
2019-01-05T21:21:01.259Z,9.20
2019-01-05T21:23:50.513Z,6.33
2019-01-05T21:26:45.986Z,6.00
2019-01-05T21:29:35.568Z,5.53
2019-01-05T21:32:27.598Z,5.30
2019-01-05T21:35:15.553Z,5.58
2019-01-05T21:38:05.007Z,5.40
2019-01-05T21:40:54.314Z,7.10
2019-01-05T21:43:46.434Z,6.28
2019-01-05T21:46:34.641Z,13.55
2019-01-05T21:49:22.558Z,6.55
2019-01-05T21:52:10.135Z,7.28
2019-01-05T21:55:05.251Z,7.37
2019-01-05T21:58:00.544Z,6.87
2019-01-05T22:01:05.842Z,6.70
2019-01-05T22:04:04.880Z,6.70
2019-01-05T22:06:57.732Z,7.83
2019-01-05T22:09:58.960Z,7.75
2019-01-05T22:13:06.918Z,8.18
2019-01-05T22:15:54.311Z,7.70
2019-01-05T22:18:42.144Z,7.78
2019-01-05T22:21:30.310Z,8.30
2019-01-05T22:24:32.008Z,9.05
2019-01-05T22:27:21.220Z,11.40
2019-01-05T22:30:09.274Z,9.28
2019-01-05T22:32:57.324Z,9.63
2019-01-05T22:35:49.431Z,9.95
2019-01-05T22:38:32.175Z,8.45
2019-01-05T22:41:26.251Z,9.95
2019-01-05T22:44:27.560Z,8.73
2019-01-05T22:47:25.409Z,12.93
2019-01-05T22:50:26.631Z,13.83
2019-01-05T22:53:12.170Z,15.25
2019-01-05T22:56:16.515Z,16.57
2019-01-05T22:59:07.902Z,13.62
2019-01-05T23:02:00.842Z,13.87
2019-01-05T23:04:56.304Z,14.98
2019-01-05T23:07:44.641Z,13.53
2019-01-05T23:10:47.937Z,12.70
2019-01-05T23:13:44.385Z,12.20
2019-01-05T23:16:28.643Z,11.97
2019-01-05T23:19:17.568Z,12.05
2019-01-05T23:22:07.352Z,15.05
2019-01-05T23:25:01.650Z,14.13
2019-01-05T23:27:53.953Z,13.40
2019-01-05T23:30:40.508Z,12.05
2019-01-05T23:33:32.582Z,12.95
2019-01-05T23:36:20.694Z,13.95
2019-01-05T23:39:08.807Z,12.90
2019-01-05T23:41:57.065Z,15.88
2019-01-05T23:44:42.728Z,21.25
2019-01-05T23:47:47.157Z,17.32
2019-01-05T23:50:35.418Z,21.95
2019-01-05T23:53:31.274Z,23.70
2019-01-05T23:56:41.628Z,19.05
2019-01-05T23:59:29.902Z,20.35
